createdAt,value
2023-11-30T00:00:18.837Z,17.10
2023-11-30T00:01:14.457Z,13.30
2023-11-30T00:01:47.705Z,14.20
2023-11-30T00:02:21.046Z,15.30
2023-11-30T00:02:54.322Z,17.00
2023-11-30T00:03:27.599Z,15.00
2023-11-30T00:04:00.885Z,16.30
2023-11-30T00:04:34.198Z,15.70
2023-11-30T00:05:08.935Z,16.90
2023-11-30T00:05:42.077Z,16.80
2023-11-30T00:06:15.389Z,15.80
2023-11-30T00:06:48.851Z,15.60
2023-11-30T00:07:22.064Z,14.90
2023-11-30T00:07:55.833Z,14.00
2023-11-30T00:08:29.001Z,14.50
2023-11-30T00:09:02.302Z,18.70
2023-11-30T00:09:35.766Z,15.00
2023-11-30T00:10:09.382Z,15.50
2023-11-30T00:10:42.502Z,17.10
2023-11-30T00:11:15.807Z,16.40
2023-11-30T00:11:49.025Z,17.00
2023-11-30T00:12:22.423Z,14.00
2023-11-30T00:12:55.641Z,16.20
2023-11-30T00:13:29.021Z,14.20
2023-11-30T00:14:02.216Z,14.20
2023-11-30T00:14:35.497Z,14.10
2023-11-30T00:15:09.103Z,17.20
2023-11-30T00:15:44.415Z,14.80
2023-11-30T00:16:19.546Z,17.00
2023-11-30T00:16:52.758Z,16.70
2023-11-30T00:17:26.026Z,18.90
2023-11-30T00:17:59.400Z,19.10
2023-11-30T00:18:32.853Z,25.60
2023-11-30T00:19:06.772Z,24.50
2023-11-30T00:19:40.953Z,24.20
2023-11-30T00:20:14.338Z,23.30
2023-11-30T00:20:47.693Z,26.50
2023-11-30T00:21:21.165Z,27.70
2023-11-30T00:21:54.384Z,29.00
2023-11-30T00:22:27.580Z,27.00
2023-11-30T00:23:00.802Z,24.40
2023-11-30T00:23:36.604Z,24.70
2023-11-30T00:24:09.818Z,24.90
2023-11-30T00:24:43.437Z,21.90
2023-11-30T00:25:16.844Z,23.00
2023-11-30T00:25:50.124Z,21.40
2023-11-30T00:26:23.289Z,19.20
2023-11-30T00:26:56.501Z,21.80
2023-11-30T00:27:29.610Z,20.70
2023-11-30T00:28:02.826Z,20.10
2023-11-30T00:28:36.112Z,21.30
2023-11-30T00:29:09.345Z,17.60
2023-11-30T00:29:42.578Z,17.30
2023-11-30T00:30:16.531Z,15.90
2023-11-30T00:30:49.743Z,22.70
2023-11-30T00:31:22.972Z,18.10
2023-11-30T00:31:56.252Z,20.20
2023-11-30T00:32:29.384Z,19.10
2023-11-30T00:33:02.833Z,17.30
2023-11-30T00:33:36.211Z,15.60
2023-11-30T00:34:09.415Z,17.10
2023-11-30T00:34:43.028Z,15.50
2023-11-30T00:35:16.035Z,16.40
2023-11-30T00:35:49.406Z,14.40
2023-11-30T00:36:22.790Z,15.10
2023-11-30T00:36:56.027Z,15.00
2023-11-30T00:37:29.245Z,16.10
2023-11-30T00:38:02.584Z,14.00
2023-11-30T00:38:35.797Z,12.10
2023-11-30T00:39:09.772Z,12.10
2023-11-30T00:39:42.944Z,12.90
2023-11-30T00:40:16.104Z,11.80
2023-11-30T00:40:49.297Z,11.40
2023-11-30T00:41:22.489Z,12.00
2023-11-30T00:41:55.885Z,12.70
2023-11-30T00:42:29.421Z,12.00
2023-11-30T00:43:02.920Z,12.20
2023-11-30T00:43:36.519Z,17.40
2023-11-30T00:44:09.737Z,14.00
2023-11-30T00:44:42.889Z,14.00
2023-11-30T00:45:16.290Z,13.00
2023-11-30T00:46:00.454Z,14.40
2023-11-30T00:46:40.555Z,14.00
2023-11-30T00:47:13.963Z,13.20
2023-11-30T00:47:47.299Z,12.60
2023-11-30T00:48:20.751Z,13.00
2023-11-30T00:48:54.177Z,11.30
2023-11-30T00:49:27.368Z,12.10
2023-11-30T00:50:00.675Z,12.20
2023-11-30T00:50:34.019Z,11.20
2023-11-30T00:51:11.535Z,14.30
2023-11-30T00:51:44.875Z,11.40
2023-11-30T00:52:18.766Z,13.10
2023-11-30T00:52:51.764Z,11.70
2023-11-30T00:53:24.916Z,10.70
2023-11-30T00:53:58.160Z,10.30
2023-11-30T00:54:31.471Z,10.60
2023-11-30T00:55:05.042Z,10.30
2023-11-30T00:55:38.243Z,11.70
2023-11-30T00:56:12.632Z,10.80
2023-11-30T00:56:45.832Z,11.00
2023-11-30T00:57:19.161Z,8.80
2023-11-30T00:57:52.491Z,12.00
2023-11-30T00:58:25.551Z,11.50
2023-11-30T00:58:58.861Z,11.80
2023-11-30T00:59:32.028Z,13.80
2023-11-30T01:00:07.343Z,14.20
2023-11-30T01:00:40.553Z,12.80
2023-11-30T01:01:13.855Z,13.20
2023-11-30T01:01:47.275Z,13.20
2023-11-30T01:02:20.729Z,13.50
2023-11-30T01:02:54.086Z,14.60
2023-11-30T01:03:27.525Z,14.50
2023-11-30T01:04:01.073Z,13.50
2023-11-30T01:04:34.829Z,16.60
2023-11-30T01:05:08.320Z,16.30
2023-11-30T01:05:41.617Z,12.80
2023-11-30T01:06:15.345Z,14.30
2023-11-30T01:06:49.817Z,17.70
2023-11-30T01:07:23.174Z,14.70
2023-11-30T01:07:56.363Z,11.40
2023-11-30T01:08:29.537Z,12.60
2023-11-30T01:09:02.729Z,11.90
2023-11-30T01:09:38.346Z,10.90
2023-11-30T01:10:11.731Z,11.40
2023-11-30T01:10:45.527Z,12.40
2023-11-30T01:11:18.697Z,10.40
2023-11-30T01:11:51.769Z,12.20
2023-11-30T01:12:28.058Z,11.50
2023-11-30T01:13:01.306Z,10.70
2023-11-30T01:13:34.507Z,11.50
2023-11-30T01:14:07.763Z,11.10
2023-11-30T01:14:41.574Z,11.40
2023-11-30T01:15:15.582Z,9.80
2023-11-30T01:15:48.967Z,12.70
2023-11-30T01:16:22.388Z,11.30
2023-11-30T01:16:55.732Z,11.30
2023-11-30T01:17:28.951Z,9.30
2023-11-30T01:18:02.535Z,10.90
2023-11-30T01:18:35.889Z,11.50
2023-11-30T01:19:09.309Z,11.80
2023-11-30T01:19:43.026Z,11.00
2023-11-30T01:20:16.231Z,10.80
2023-11-30T01:20:49.532Z,9.70
2023-11-30T01:21:22.748Z,10.70
2023-11-30T01:21:55.951Z,9.30
2023-11-30T01:22:29.429Z,11.00
2023-11-30T01:23:02.604Z,12.80
2023-11-30T01:23:35.783Z,12.00
2023-11-30T01:24:08.989Z,10.60
2023-11-30T01:24:42.651Z,10.80
2023-11-30T01:25:15.942Z,11.80
2023-11-30T01:25:49.241Z,10.50
2023-11-30T01:26:22.496Z,11.20
2023-11-30T01:26:55.693Z,9.00
2023-11-30T01:27:29.132Z,11.90
2023-11-30T01:28:02.337Z,9.10
2023-11-30T01:28:35.417Z,10.90
2023-11-30T01:29:08.743Z,8.90
2023-11-30T01:29:41.878Z,10.10
2023-11-30T01:30:15.163Z,10.20
2023-11-30T01:30:48.338Z,11.70
2023-11-30T01:31:21.685Z,10.40
2023-11-30T01:31:54.990Z,9.50
2023-11-30T01:32:28.333Z,11.70
2023-11-30T01:33:01.675Z,10.90
2023-11-30T01:33:35.092Z,13.50
2023-11-30T01:34:08.526Z,14.20
2023-11-30T01:34:41.706Z,18.80
2023-11-30T01:35:14.899Z,18.80
2023-11-30T01:35:49.525Z,16.50
2023-11-30T01:36:22.837Z,12.10
2023-11-30T01:36:56.366Z,12.60
2023-11-30T01:37:29.648Z,15.10
2023-11-30T01:38:03.111Z,15.40
2023-11-30T01:38:36.515Z,17.80
2023-11-30T01:39:09.727Z,15.70
2023-11-30T01:39:42.864Z,13.80
2023-11-30T01:40:16.060Z,13.60
2023-11-30T01:40:49.426Z,12.60
2023-11-30T01:41:22.621Z,12.50
2023-11-30T01:41:55.820Z,11.80
2023-11-30T01:42:30.055Z,12.40
2023-11-30T01:43:06.551Z,11.00
2023-11-30T01:43:39.743Z,11.40
2023-11-30T01:44:13.045Z,8.90
2023-11-30T01:44:46.177Z,11.10
2023-11-30T01:45:19.518Z,10.30
2023-11-30T01:46:02.566Z,10.70
2023-11-30T01:46:38.253Z,9.60
2023-11-30T01:47:11.703Z,10.30
2023-11-30T01:47:45.821Z,9.60
2023-11-30T01:48:19.212Z,10.40
2023-11-30T01:48:52.628Z,10.90
2023-11-30T01:49:25.990Z,13.20
2023-11-30T01:49:59.834Z,11.50
2023-11-30T01:50:33.020Z,11.90
2023-11-30T01:51:07.292Z,12.00
2023-11-30T01:51:40.710Z,10.60
2023-11-30T01:52:13.876Z,11.50
2023-11-30T01:52:47.264Z,11.00
2023-11-30T01:53:20.551Z,12.60
2023-11-30T01:53:54.382Z,11.40
2023-11-30T01:54:27.976Z,11.30
2023-11-30T01:55:02.850Z,12.90
2023-11-30T01:55:36.240Z,10.70
2023-11-30T01:56:10.182Z,9.60
2023-11-30T01:56:43.805Z,10.30
2023-11-30T01:57:17.020Z,11.30
2023-11-30T01:57:50.062Z,12.60
2023-11-30T01:58:23.866Z,12.10
2023-11-30T01:58:57.352Z,9.50
2023-11-30T01:59:31.028Z,10.60
2023-11-30T02:00:05.787Z,10.10
2023-11-30T02:00:39.354Z,10.30
2023-11-30T02:01:12.702Z,11.20
2023-11-30T02:01:46.498Z,12.10
2023-11-30T02:02:19.860Z,10.30
2023-11-30T02:02:53.627Z,14.20
2023-11-30T02:03:27.466Z,11.90
2023-11-30T02:04:08.279Z,10.70
2023-11-30T02:04:43.154Z,11.90
2023-11-30T02:05:16.551Z,11.20
2023-11-30T02:05:49.939Z,11.60
2023-11-30T02:06:23.153Z,11.80
2023-11-30T02:06:56.372Z,10.80
2023-11-30T02:07:29.551Z,10.90
2023-11-30T02:08:02.964Z,12.10
2023-11-30T02:08:36.236Z,10.20
2023-11-30T02:09:09.432Z,11.30
2023-11-30T02:09:42.781Z,12.30
2023-11-30T02:10:16.014Z,11.80
2023-11-30T02:10:49.234Z,12.40
2023-11-30T02:11:22.441Z,12.40
2023-11-30T02:11:55.633Z,11.70
2023-11-30T02:12:29.143Z,10.30
2023-11-30T02:13:02.750Z,12.10
2023-11-30T02:13:36.047Z,11.50
2023-11-30T02:14:09.324Z,12.70
2023-11-30T02:14:42.517Z,11.10
2023-11-30T02:15:15.771Z,10.10
2023-11-30T02:15:49.117Z,11.30
2023-11-30T02:16:22.431Z,11.40
2023-11-30T02:16:55.727Z,10.80
2023-11-30T02:17:28.929Z,11.10
2023-11-30T02:18:02.363Z,10.70
2023-11-30T02:18:35.830Z,10.60
2023-11-30T02:19:09.057Z,11.20
2023-11-30T02:19:42.452Z,9.40
2023-11-30T02:20:15.725Z,10.90
2023-11-30T02:20:48.799Z,11.70
2023-11-30T02:21:22.210Z,11.20
2023-11-30T02:21:55.364Z,11.90
2023-11-30T02:22:28.645Z,11.20
2023-11-30T02:23:02.132Z,9.90
2023-11-30T02:23:35.505Z,11.30
2023-11-30T02:24:09.044Z,11.80
2023-11-30T02:24:42.371Z,12.40
2023-11-30T02:25:15.902Z,13.10
2023-11-30T02:25:49.341Z,12.30
2023-11-30T02:26:22.531Z,13.10
2023-11-30T02:26:55.848Z,13.30
2023-11-30T02:27:29.211Z,11.30
2023-11-30T02:28:02.496Z,12.40
2023-11-30T02:28:35.642Z,13.70
2023-11-30T02:29:08.935Z,10.80
2023-11-30T02:29:42.321Z,12.40
2023-11-30T02:30:15.603Z,12.70
2023-11-30T02:30:51.034Z,10.80
2023-11-30T02:31:24.321Z,10.70
2023-11-30T02:31:57.917Z,11.20
2023-11-30T02:32:31.210Z,11.40
2023-11-30T02:33:04.847Z,11.30
2023-11-30T02:33:38.087Z,11.20
2023-11-30T02:34:11.429Z,10.80
2023-11-30T02:34:44.808Z,12.00
2023-11-30T02:35:17.990Z,11.90
2023-11-30T02:35:51.432Z,10.50
2023-11-30T02:36:24.665Z,11.70
2023-11-30T02:36:57.721Z,13.10
2023-11-30T02:37:30.846Z,12.70
2023-11-30T02:38:03.972Z,11.70
2023-11-30T02:38:37.462Z,10.90
2023-11-30T02:39:10.995Z,13.60
2023-11-30T02:39:44.328Z,13.50
2023-11-30T02:40:17.517Z,12.00
2023-11-30T02:40:51.216Z,12.20
2023-11-30T02:41:24.370Z,13.40
2023-11-30T02:41:57.577Z,13.00
2023-11-30T02:42:30.988Z,12.70
2023-11-30T02:43:04.324Z,12.70
2023-11-30T02:43:37.469Z,11.70
2023-11-30T02:44:10.890Z,10.50
2023-11-30T02:44:43.962Z,11.20
2023-11-30T02:45:17.034Z,12.30
2023-11-30T02:45:50.196Z,11.30
2023-11-30T02:46:23.340Z,13.10
2023-11-30T02:46:56.409Z,12.70
2023-11-30T02:47:29.767Z,12.50
2023-11-30T02:48:03.524Z,12.90
2023-11-30T02:48:40.072Z,12.30
2023-11-30T02:49:13.384Z,13.50
2023-11-30T02:49:46.549Z,10.80
2023-11-30T02:50:19.669Z,11.30
2023-11-30T02:50:52.756Z,11.60
2023-11-30T02:51:26.026Z,11.30
2023-11-30T02:51:59.168Z,12.00
2023-11-30T02:52:32.412Z,12.20
2023-11-30T02:53:06.454Z,12.70
2023-11-30T02:53:39.825Z,12.70
2023-11-30T02:54:13.128Z,12.70
2023-11-30T02:54:46.276Z,11.20
2023-11-30T02:55:19.458Z,12.50
2023-11-30T02:55:52.842Z,12.10
2023-11-30T02:56:26.029Z,12.10
2023-11-30T02:56:59.427Z,12.80
2023-11-30T02:57:32.921Z,11.70
2023-11-30T02:58:06.278Z,12.30
2023-11-30T02:58:39.549Z,11.20
2023-11-30T02:59:12.715Z,10.60
2023-11-30T02:59:46.022Z,11.10
2023-11-30T03:00:19.632Z,10.60
2023-11-30T03:00:52.883Z,12.40
2023-11-30T03:01:26.189Z,11.10
2023-11-30T03:01:59.447Z,12.20
2023-11-30T03:02:32.904Z,11.40
2023-11-30T03:03:06.137Z,10.90
2023-11-30T03:03:39.550Z,11.20
2023-11-30T03:04:12.916Z,10.80
2023-11-30T03:04:46.665Z,11.10
2023-11-30T03:05:19.855Z,12.50
2023-11-30T03:05:53.385Z,11.60
2023-11-30T03:06:26.615Z,13.90
2023-11-30T03:06:59.789Z,11.40
2023-11-30T03:07:32.959Z,11.50
2023-11-30T03:08:06.058Z,12.10
2023-11-30T03:08:39.110Z,11.80
2023-11-30T03:09:13.450Z,11.10
2023-11-30T03:09:46.702Z,12.70
2023-11-30T03:10:24.194Z,12.70
2023-11-30T03:10:57.564Z,11.20
2023-11-30T03:11:30.862Z,11.30
2023-11-30T03:12:04.240Z,12.20
2023-11-30T03:12:37.297Z,13.30
2023-11-30T03:13:10.458Z,11.40
2023-11-30T03:13:43.578Z,12.50
2023-11-30T03:14:16.747Z,11.80
2023-11-30T03:14:49.902Z,12.30
2023-11-30T03:15:24.248Z,11.30
2023-11-30T03:15:57.544Z,10.30
2023-11-30T03:16:30.798Z,11.20
2023-11-30T03:17:04.065Z,10.80
2023-11-30T03:17:37.472Z,19.10
2023-11-30T03:18:10.741Z,12.80
2023-11-30T03:18:43.922Z,11.90
2023-11-30T03:19:17.736Z,13.20
2023-11-30T03:19:50.975Z,11.50
2023-11-30T03:20:24.365Z,11.70
2023-11-30T03:20:57.822Z,11.30
2023-11-30T03:21:31.127Z,13.90
2023-11-30T03:22:04.201Z,13.40
2023-11-30T03:22:37.481Z,12.90
2023-11-30T03:23:10.759Z,12.10
2023-11-30T03:23:44.346Z,11.50
2023-11-30T03:24:18.206Z,12.10
2023-11-30T03:24:51.325Z,13.00
2023-11-30T03:25:24.285Z,14.20
2023-11-30T03:25:57.484Z,11.40
2023-11-30T03:26:30.637Z,12.40
2023-11-30T03:27:03.952Z,11.30
2023-11-30T03:27:37.505Z,12.40
2023-11-30T03:28:10.695Z,11.60
2023-11-30T03:28:43.658Z,12.50
2023-11-30T03:29:16.853Z,12.10
2023-11-30T03:29:50.229Z,11.00
2023-11-30T03:30:23.519Z,13.80
2023-11-30T03:30:56.762Z,11.00
2023-11-30T03:31:30.129Z,13.20
2023-11-30T03:32:03.386Z,11.60
2023-11-30T03:32:36.679Z,12.50
2023-11-30T03:33:09.963Z,11.30
2023-11-30T03:33:43.411Z,12.70
2023-11-30T03:34:16.470Z,11.90
2023-11-30T03:34:49.604Z,10.50
2023-11-30T03:35:22.930Z,11.50
2023-11-30T03:35:57.354Z,12.00
2023-11-30T03:36:30.653Z,13.10
2023-11-30T03:37:04.116Z,12.20
2023-11-30T03:37:41.696Z,12.60
2023-11-30T03:38:14.922Z,12.40
2023-11-30T03:38:48.474Z,12.30
2023-11-30T03:39:21.910Z,13.00
2023-11-30T03:39:55.534Z,13.70
2023-11-30T03:40:28.812Z,14.50
2023-11-30T03:41:02.073Z,14.10
2023-11-30T03:41:35.356Z,11.50
2023-11-30T03:42:08.733Z,11.50
2023-11-30T03:42:42.152Z,13.00
2023-11-30T03:43:15.707Z,12.70
2023-11-30T03:43:49.517Z,12.70
2023-11-30T03:44:22.790Z,10.10
2023-11-30T03:44:55.917Z,11.20
2023-11-30T03:45:35.801Z,11.10
2023-11-30T03:46:09.427Z,10.80
2023-11-30T03:46:42.746Z,11.10
2023-11-30T03:47:16.247Z,11.50
2023-11-30T03:47:49.460Z,12.10
2023-11-30T03:48:22.746Z,12.10
2023-11-30T03:48:56.444Z,12.50
2023-11-30T03:49:29.712Z,10.70
2023-11-30T03:50:02.821Z,12.70
2023-11-30T03:50:35.944Z,11.80
2023-11-30T03:51:09.342Z,11.30
2023-11-30T03:51:42.643Z,11.40
2023-11-30T03:52:15.672Z,12.70
2023-11-30T03:52:48.917Z,11.60
2023-11-30T03:53:21.969Z,13.20
2023-11-30T03:53:55.273Z,11.90
2023-11-30T03:54:28.662Z,12.50
2023-11-30T03:55:01.779Z,16.00
2023-11-30T03:55:34.960Z,13.30
2023-11-30T03:56:08.988Z,12.50
2023-11-30T03:56:42.121Z,12.20
2023-11-30T03:57:15.226Z,10.90
2023-11-30T03:57:48.268Z,11.80
2023-11-30T03:58:21.579Z,10.70
2023-11-30T03:58:54.934Z,11.80
2023-11-30T03:59:28.122Z,10.50
2023-11-30T04:00:01.432Z,12.90
2023-11-30T04:00:35.028Z,9.80
2023-11-30T04:01:08.614Z,10.90
2023-11-30T04:01:42.026Z,12.20
2023-11-30T04:02:15.458Z,11.50
2023-11-30T04:02:49.078Z,13.10
2023-11-30T04:03:22.513Z,11.80
2023-11-30T04:03:55.890Z,11.70
2023-11-30T04:04:29.438Z,14.20
2023-11-30T04:05:05.290Z,11.00
2023-11-30T04:05:38.601Z,11.90
2023-11-30T04:06:20.439Z,12.70
2023-11-30T04:06:53.726Z,12.40
2023-11-30T04:07:30.995Z,11.20
2023-11-30T04:08:04.434Z,12.50
2023-11-30T04:08:37.606Z,11.20
2023-11-30T04:09:10.980Z,12.70
2023-11-30T04:09:44.389Z,11.20
2023-11-30T04:10:18.175Z,12.80
2023-11-30T04:10:51.762Z,10.90
2023-11-30T04:11:25.233Z,11.40
2023-11-30T04:11:58.662Z,12.10
2023-11-30T04:12:31.882Z,11.80
2023-11-30T04:13:05.391Z,11.00
2023-11-30T04:13:38.662Z,12.60
2023-11-30T04:14:11.870Z,11.00
2023-11-30T04:14:45.145Z,9.80
2023-11-30T04:15:18.622Z,11.80
2023-11-30T04:15:51.914Z,12.60
2023-11-30T04:16:25.168Z,13.50
2023-11-30T04:17:00.768Z,11.70
2023-11-30T04:17:36.289Z,11.60
2023-11-30T04:18:09.982Z,12.50
2023-11-30T04:18:43.942Z,12.30
2023-11-30T04:19:17.710Z,14.10
2023-11-30T04:19:51.115Z,12.70
2023-11-30T04:20:24.373Z,13.30
2023-11-30T04:20:57.905Z,12.40
2023-11-30T04:21:32.000Z,14.20
2023-11-30T04:22:05.463Z,12.70
2023-11-30T04:22:38.939Z,12.00
2023-11-30T04:23:12.642Z,11.90
2023-11-30T04:23:46.610Z,11.60
2023-11-30T04:24:19.974Z,12.30
2023-11-30T04:24:53.195Z,10.20
2023-11-30T04:25:26.890Z,9.90
2023-11-30T04:26:00.367Z,10.10
2023-11-30T04:26:33.652Z,12.60
2023-11-30T04:27:07.144Z,10.90
2023-11-30T04:27:40.346Z,10.70
2023-11-30T04:28:13.584Z,10.80
2023-11-30T04:28:46.872Z,11.10
2023-11-30T04:29:20.466Z,11.10
2023-11-30T04:29:53.979Z,12.10
2023-11-30T04:30:27.346Z,11.30
2023-11-30T04:31:01.923Z,10.70
2023-11-30T04:31:35.367Z,13.60
2023-11-30T04:32:09.106Z,12.30
2023-11-30T04:32:42.810Z,11.70
2023-11-30T04:33:16.023Z,11.80
2023-11-30T04:33:49.498Z,13.10
2023-11-30T04:34:22.943Z,11.90
2023-11-30T04:34:56.676Z,11.70
2023-11-30T04:35:30.229Z,14.60
2023-11-30T04:36:04.414Z,12.90
2023-11-30T04:36:37.928Z,12.60
2023-11-30T04:37:11.367Z,11.50
2023-11-30T04:37:44.880Z,11.80
2023-11-30T04:38:18.776Z,12.90
2023-11-30T04:38:52.151Z,10.60
2023-11-30T04:39:25.756Z,12.40
2023-11-30T04:39:59.332Z,11.50
2023-11-30T04:40:32.609Z,12.00
2023-11-30T04:41:06.308Z,9.50
2023-11-30T04:41:39.994Z,12.10
2023-11-30T04:42:13.072Z,10.20
2023-11-30T04:42:46.252Z,12.10
2023-11-30T04:43:19.430Z,10.40
2023-11-30T04:43:59.908Z,14.10
2023-11-30T04:44:33.356Z,12.80
2023-11-30T04:45:07.037Z,10.50
2023-11-30T04:45:40.400Z,11.00
2023-11-30T04:46:13.646Z,11.10
2023-11-30T04:46:47.220Z,12.70
2023-11-30T04:47:20.895Z,11.60
2023-11-30T04:47:54.230Z,11.10
2023-11-30T04:48:27.634Z,12.20
2023-11-30T04:49:01.551Z,12.10
2023-11-30T04:49:34.748Z,16.30
2023-11-30T04:50:08.659Z,12.60
2023-11-30T04:50:42.206Z,11.90
2023-11-30T04:51:16.058Z,10.30
2023-11-30T04:51:49.477Z,11.90
2023-11-30T04:52:22.741Z,11.00
2023-11-30T04:52:56.354Z,11.20
2023-11-30T04:53:29.741Z,11.70
2023-11-30T04:54:03.279Z,10.80
2023-11-30T04:54:39.058Z,11.70
2023-11-30T04:55:12.757Z,10.50
2023-11-30T04:55:46.058Z,10.50
2023-11-30T04:56:21.163Z,10.50
2023-11-30T04:56:54.589Z,10.20
2023-11-30T04:57:27.953Z,12.90
2023-11-30T04:58:01.194Z,10.20
2023-11-30T04:58:34.715Z,10.30
2023-11-30T04:59:08.076Z,11.60
2023-11-30T04:59:41.978Z,11.30
2023-11-30T05:00:16.226Z,10.10
2023-11-30T05:00:49.780Z,11.90
2023-11-30T05:01:23.277Z,12.00
2023-11-30T05:01:57.085Z,10.80
2023-11-30T05:02:30.544Z,12.70
2023-11-30T05:03:04.299Z,10.10
2023-11-30T05:03:39.154Z,11.10
2023-11-30T05:04:13.029Z,11.00
2023-11-30T05:04:46.518Z,10.30
2023-11-30T05:05:20.502Z,11.60
2023-11-30T05:05:54.693Z,10.20
2023-11-30T05:06:28.968Z,10.00
2023-11-30T05:07:02.290Z,11.50
2023-11-30T05:07:35.714Z,11.00
2023-11-30T05:08:09.106Z,11.40
2023-11-30T05:08:42.316Z,10.00
2023-11-30T05:09:16.666Z,11.50
2023-11-30T05:09:49.998Z,9.40
2023-11-30T05:10:23.626Z,10.60
2023-11-30T05:10:57.006Z,10.50
2023-11-30T05:11:31.013Z,10.40
2023-11-30T05:12:04.319Z,11.20
2023-11-30T05:12:37.760Z,10.40
2023-11-30T05:13:11.153Z,11.20
2023-11-30T05:13:44.424Z,10.90
2023-11-30T05:14:17.917Z,11.00
2023-11-30T05:14:51.294Z,11.30
2023-11-30T05:15:25.354Z,10.20
2023-11-30T05:16:00.421Z,10.60
2023-11-30T05:16:33.687Z,10.70
2023-11-30T05:17:07.666Z,10.30
2023-11-30T05:17:40.925Z,12.20
2023-11-30T05:18:14.325Z,9.30
2023-11-30T05:18:47.746Z,9.80
2023-11-30T05:19:21.138Z,10.00
2023-11-30T05:19:54.837Z,10.90
2023-11-30T05:20:28.114Z,8.60
2023-11-30T05:21:01.651Z,9.10
2023-11-30T05:21:35.068Z,9.50
2023-11-30T05:22:09.368Z,9.30
2023-11-30T05:22:43.460Z,9.30
2023-11-30T05:23:16.591Z,10.30
2023-11-30T05:23:49.848Z,10.10
2023-11-30T05:24:23.802Z,10.60
2023-11-30T05:24:57.104Z,9.90
2023-11-30T05:25:30.488Z,13.10
2023-11-30T05:26:04.386Z,11.30
2023-11-30T05:26:37.998Z,13.50
2023-11-30T05:27:11.526Z,10.60
2023-11-30T05:27:44.906Z,10.10
2023-11-30T05:28:18.461Z,10.20
2023-11-30T05:28:51.704Z,10.50
2023-11-30T05:29:25.031Z,11.10
2023-11-30T05:29:58.719Z,10.30
2023-11-30T05:30:32.318Z,10.60
2023-11-30T05:31:06.283Z,9.80
2023-11-30T05:31:39.528Z,10.70
2023-11-30T05:32:12.751Z,9.20
2023-11-30T05:32:46.278Z,10.30
2023-11-30T05:33:19.671Z,10.90
2023-11-30T05:33:52.986Z,10.30
2023-11-30T05:34:26.116Z,9.10
2023-11-30T05:34:59.761Z,12.00
2023-11-30T05:35:33.114Z,10.40
2023-11-30T05:36:06.411Z,9.60
2023-11-30T05:36:40.004Z,10.40
2023-11-30T05:37:13.259Z,10.80
2023-11-30T05:37:47.486Z,9.30
2023-11-30T05:38:20.981Z,11.10
2023-11-30T05:38:54.972Z,11.40
2023-11-30T05:39:28.508Z,12.70
2023-11-30T05:40:02.076Z,11.00
2023-11-30T05:40:36.840Z,11.80
2023-11-30T05:41:10.015Z,10.70
2023-11-30T05:41:43.865Z,9.80
2023-11-30T05:42:17.247Z,10.40
2023-11-30T05:42:50.722Z,12.10
2023-11-30T05:43:24.285Z,10.20
2023-11-30T05:43:57.694Z,10.90
2023-11-30T05:44:31.131Z,10.10
2023-11-30T05:45:04.957Z,9.20
2023-11-30T05:45:38.254Z,10.50
2023-11-30T05:46:11.719Z,8.60
2023-11-30T05:46:47.548Z,10.20
2023-11-30T05:47:22.858Z,10.10
2023-11-30T05:47:56.673Z,10.80
2023-11-30T05:48:31.128Z,11.40
2023-11-30T05:49:05.020Z,11.30
2023-11-30T05:49:38.456Z,11.50
2023-11-30T05:50:12.048Z,10.40
2023-11-30T05:50:45.324Z,11.40
2023-11-30T05:51:18.859Z,11.80
2023-11-30T05:51:52.195Z,11.40
2023-11-30T05:52:25.453Z,10.60
2023-11-30T05:52:58.755Z,12.60
2023-11-30T05:53:32.036Z,10.60
2023-11-30T05:54:05.382Z,12.40
2023-11-30T05:54:38.942Z,14.00
2023-11-30T05:55:13.190Z,12.20
2023-11-30T05:55:46.492Z,10.70
2023-11-30T05:56:19.812Z,11.10
2023-11-30T05:56:53.958Z,11.30
2023-11-30T05:57:27.769Z,10.30
2023-11-30T05:58:01.020Z,9.80
2023-11-30T05:58:34.321Z,11.50
2023-11-30T05:59:08.124Z,10.90
2023-11-30T05:59:41.479Z,9.20
2023-11-30T06:00:15.207Z,9.60
2023-11-30T06:00:48.652Z,9.90
2023-11-30T06:01:22.139Z,9.80
2023-11-30T06:01:55.639Z,9.10
2023-11-30T06:02:29.738Z,9.50
2023-11-30T06:03:05.467Z,10.70
2023-11-30T06:03:40.726Z,9.60
2023-11-30T06:04:14.105Z,9.70
2023-11-30T06:04:53.126Z,11.30
2023-11-30T06:05:26.595Z,11.30
2023-11-30T06:06:00.821Z,10.80
2023-11-30T06:06:34.438Z,10.50
2023-11-30T06:07:08.045Z,11.40
2023-11-30T06:07:41.673Z,10.60
2023-11-30T06:08:15.026Z,10.10
2023-11-30T06:08:48.941Z,11.40
2023-11-30T06:09:22.267Z,9.90
2023-11-30T06:09:55.832Z,12.90
2023-11-30T06:10:29.200Z,14.80
2023-11-30T06:11:02.450Z,10.10
2023-11-30T06:11:36.653Z,9.80
2023-11-30T06:12:10.537Z,10.10
2023-11-30T06:12:43.964Z,10.70
2023-11-30T06:13:17.436Z,10.50
2023-11-30T06:13:50.739Z,10.90
2023-11-30T06:14:24.179Z,14.00
2023-11-30T06:14:57.643Z,9.80
2023-11-30T06:15:31.044Z,9.90
2023-11-30T06:16:04.666Z,11.70
2023-11-30T06:16:38.252Z,10.00
2023-11-30T06:17:12.632Z,10.50
2023-11-30T06:17:46.637Z,10.20
2023-11-30T06:18:20.171Z,11.80
2023-11-30T06:18:53.477Z,9.70
2023-11-30T06:19:26.693Z,9.50
2023-11-30T06:20:01.384Z,11.00
2023-11-30T06:20:36.851Z,9.50
2023-11-30T06:21:11.074Z,10.70
2023-11-30T06:21:44.720Z,10.10
2023-11-30T06:22:18.442Z,9.40
2023-11-30T06:22:51.745Z,9.80
2023-11-30T06:23:25.169Z,11.00
2023-11-30T06:23:58.937Z,10.90
2023-11-30T06:24:32.728Z,9.90
2023-11-30T06:25:07.076Z,11.30
2023-11-30T06:25:40.345Z,10.00
2023-11-30T06:26:13.634Z,9.40
2023-11-30T06:26:46.939Z,9.40
2023-11-30T06:27:20.215Z,9.40
2023-11-30T06:27:53.590Z,11.50
2023-11-30T06:28:29.826Z,9.30
2023-11-30T06:29:03.346Z,9.40
2023-11-30T06:29:36.847Z,9.70
2023-11-30T06:30:10.332Z,8.90
2023-11-30T06:30:43.905Z,9.40
2023-11-30T06:31:17.285Z,9.30
2023-11-30T06:31:50.748Z,9.50
2023-11-30T06:32:24.120Z,10.70
2023-11-30T06:32:57.860Z,10.60
2023-11-30T06:33:31.307Z,10.00
2023-11-30T06:34:04.767Z,10.90
2023-11-30T06:34:39.750Z,9.00
2023-11-30T06:35:13.481Z,10.70
2023-11-30T06:35:46.968Z,10.30
2023-11-30T06:36:22.216Z,10.50
2023-11-30T06:36:55.729Z,11.20
2023-11-30T06:37:28.960Z,10.40
2023-11-30T06:38:03.573Z,10.90
2023-11-30T06:38:36.746Z,11.00
2023-11-30T06:39:10.255Z,10.90
2023-11-30T06:39:43.711Z,11.40
2023-11-30T06:40:16.993Z,10.00
2023-11-30T06:40:50.481Z,11.70
2023-11-30T06:41:23.784Z,10.10
2023-11-30T06:41:57.152Z,11.30
2023-11-30T06:42:30.546Z,10.20
2023-11-30T06:43:03.787Z,10.00
2023-11-30T06:43:37.508Z,10.50
2023-11-30T06:44:11.160Z,9.70
2023-11-30T06:44:45.709Z,10.40
2023-11-30T06:45:19.424Z,10.50
2023-11-30T06:45:52.665Z,11.30
2023-11-30T06:46:26.098Z,9.20
2023-11-30T06:46:59.578Z,10.40
2023-11-30T06:47:33.176Z,9.60
2023-11-30T06:48:06.819Z,10.70
2023-11-30T06:48:40.321Z,10.40
2023-11-30T06:49:14.546Z,9.80
2023-11-30T06:49:48.920Z,10.00
2023-11-30T06:50:22.213Z,11.20
2023-11-30T06:50:55.674Z,10.30
2023-11-30T06:51:29.188Z,9.70
2023-11-30T06:52:05.062Z,13.10
2023-11-30T06:52:39.330Z,10.50
2023-11-30T06:53:12.836Z,11.00
2023-11-30T06:53:46.390Z,10.00
2023-11-30T06:54:21.272Z,10.90
2023-11-30T06:54:54.984Z,10.80
2023-11-30T06:55:28.245Z,10.10
2023-11-30T06:56:01.862Z,9.80
2023-11-30T06:56:35.043Z,9.90
2023-11-30T06:57:08.464Z,9.30
2023-11-30T06:57:42.050Z,10.10
2023-11-30T06:58:15.487Z,9.20
2023-11-30T06:58:49.190Z,10.10
2023-11-30T06:59:22.355Z,9.10
2023-11-30T06:59:55.566Z,9.50
2023-11-30T07:00:29.173Z,8.80
2023-11-30T07:01:02.411Z,9.90
2023-11-30T07:01:37.919Z,9.70
2023-11-30T07:02:11.896Z,9.90
2023-11-30T07:02:45.668Z,9.90
2023-11-30T07:03:19.688Z,9.80
2023-11-30T07:03:53.550Z,9.50
2023-11-30T07:04:29.753Z,10.50
2023-11-30T07:05:05.749Z,11.60
2023-11-30T07:05:39.099Z,12.10
2023-11-30T07:06:12.691Z,10.00
2023-11-30T07:06:45.996Z,9.70
2023-11-30T07:07:28.294Z,9.70
2023-11-30T07:08:08.308Z,9.90
2023-11-30T07:08:41.575Z,9.70
2023-11-30T07:09:14.877Z,11.00
2023-11-30T07:09:48.452Z,11.20
2023-11-30T07:10:21.743Z,10.50
2023-11-30T07:10:55.844Z,11.50
2023-11-30T07:11:29.260Z,10.70
2023-11-30T07:12:02.742Z,12.30
2023-11-30T07:12:36.324Z,20.60
2023-11-30T07:13:09.658Z,17.40
2023-11-30T07:13:43.146Z,17.40
2023-11-30T07:14:16.947Z,15.80
2023-11-30T07:14:51.852Z,15.40
2023-11-30T07:15:25.292Z,13.90